sensor_id;sensor_type;location;lat;lon;timestamp;P1;durP1;ratioP1;P2;durP2;ratioP2
3417;SDS011;1722;51.316;12.370;2022-12-07T00:01:33;13.80;;;8.97;;
3417;SDS011;1722;51.316;12.370;2022-12-07T00:04:04;14.47;;;9.20;;
3417;SDS011;1722;51.316;12.370;2022-12-07T00:06:33;15.27;;;8.97;;
3417;SDS011;1722;51.316;12.370;2022-12-07T00:09:02;14.37;;;8.93;;
3417;SDS011;1722;51.316;12.370;2022-12-07T00:11:30;13.23;;;8.50;;
3417;SDS011;1722;51.316;12.370;2022-12-07T00:13:58;16.03;;;9.00;;
3417;SDS011;1722;51.316;12.370;2022-12-07T00:16:28;12.80;;;8.40;;
3417;SDS011;1722;51.316;12.370;2022-12-07T00:18:58;15.57;;;9.80;;
3417;SDS011;1722;51.316;12.370;2022-12-07T00:21:27;14.20;;;8.23;;
3417;SDS011;1722;51.316;12.370;2022-12-07T00:23:55;12.77;;;8.37;;
3417;SDS011;1722;51.316;12.370;2022-12-07T00:26:24;16.27;;;9.43;;
3417;SDS011;1722;51.316;12.370;2022-12-07T00:28:54;16.60;;;9.27;;
3417;SDS011;1722;51.316;12.370;2022-12-07T00:31:23;17.40;;;10.20;;
3417;SDS011;1722;51.316;12.370;2022-12-07T00:33:52;15.80;;;9.80;;
3417;SDS011;1722;51.316;12.370;2022-12-07T00:36:21;16.57;;;9.90;;
3417;SDS011;1722;51.316;12.370;2022-12-07T00:38:50;13.90;;;9.00;;
3417;SDS011;1722;51.316;12.370;2022-12-07T00:41:19;16.00;;;9.27;;
3417;SDS011;1722;51.316;12.370;2022-12-07T00:43:48;13.30;;;9.10;;
3417;SDS011;1722;51.316;12.370;2022-12-07T00:46:17;16.07;;;10.20;;
3417;SDS011;1722;51.316;12.370;2022-12-07T00:48:46;14.60;;;9.93;;
3417;SDS011;1722;51.316;12.370;2022-12-07T00:51:15;17.03;;;9.87;;
3417;SDS011;1722;51.316;12.370;2022-12-07T00:53:45;16.47;;;9.90;;
3417;SDS011;1722;51.316;12.370;2022-12-07T00:56:13;13.20;;;8.90;;
3417;SDS011;1722;51.316;12.370;2022-12-07T00:58:42;16.23;;;9.87;;
3417;SDS011;1722;51.316;12.370;2022-12-07T01:01:10;15.17;;;9.83;;
3417;SDS011;1722;51.316;12.370;2022-12-07T01:03:38;16.63;;;9.90;;
3417;SDS011;1722;51.316;12.370;2022-12-07T01:06:05;17.03;;;9.93;;
3417;SDS011;1722;51.316;12.370;2022-12-07T01:08:33;15.67;;;10.13;;
3417;SDS011;1722;51.316;12.370;2022-12-07T01:11:03;13.53;;;8.70;;
3417;SDS011;1722;51.316;12.370;2022-12-07T01:13:32;15.93;;;9.80;;
3417;SDS011;1722;51.316;12.370;2022-12-07T01:16:02;13.83;;;8.90;;
3417;SDS011;1722;51.316;12.370;2022-12-07T01:18:32;13.90;;;10.17;;
3417;SDS011;1722;51.316;12.370;2022-12-07T01:21:20;18.00;;;10.17;;
3417;SDS011;1722;51.316;12.370;2022-12-07T01:24:26;14.47;;;8.80;;
3417;SDS011;1722;51.316;12.370;2022-12-07T01:26:58;15.10;;;9.80;;
3417;SDS011;1722;51.316;12.370;2022-12-07T01:29:34;14.47;;;9.27;;
3417;SDS011;1722;51.316;12.370;2022-12-07T01:32:05;14.33;;;9.53;;
3417;SDS011;1722;51.316;12.370;2022-12-07T01:35:20;16.53;;;9.70;;
3417;SDS011;1722;51.316;12.370;2022-12-07T01:38:02;14.60;;;9.00;;
3417;SDS011;1722;51.316;12.370;2022-12-07T01:40:41;16.80;;;10.10;;
3417;SDS011;1722;51.316;12.370;2022-12-07T01:43:17;19.90;;;9.30;;
3417;SDS011;1722;51.316;12.370;2022-12-07T01:46:06;14.53;;;8.50;;
3417;SDS011;1722;51.316;12.370;2022-12-07T01:51:49;17.53;;;8.80;;
3417;SDS011;1722;51.316;12.370;2022-12-07T01:54:32;17.90;;;9.10;;
3417;SDS011;1722;51.316;12.370;2022-12-07T01:57:35;15.60;;;10.00;;
3417;SDS011;1722;51.316;12.370;2022-12-07T02:00:20;16.07;;;8.70;;
3417;SDS011;1722;51.316;12.370;2022-12-07T02:03:21;15.17;;;8.50;;
3417;SDS011;1722;51.316;12.370;2022-12-07T02:06:48;17.80;;;8.50;;
3417;SDS011;1722;51.316;12.370;2022-12-07T02:15:47;11.77;;;8.37;;
3417;SDS011;1722;51.316;12.370;2022-12-07T02:47:06;14.90;;;8.10;;
3417;SDS011;1722;51.316;12.370;2022-12-07T02:56:30;12.63;;;8.10;;
3417;SDS011;1722;51.316;12.370;2022-12-07T03:12:58;12.20;;;7.43;;
3417;SDS011;1722;51.316;12.370;2022-12-07T03:15:54;16.63;;;8.43;;
3417;SDS011;1722;51.316;12.370;2022-12-07T03:22:21;10.70;;;7.07;;
3417;SDS011;1722;51.316;12.370;2022-12-07T03:25:24;10.13;;;6.80;;
3417;SDS011;1722;51.316;12.370;2022-12-07T03:28:31;11.00;;;6.43;;
3417;SDS011;1722;51.316;12.370;2022-12-07T03:31:17;12.47;;;7.40;;
3417;SDS011;1722;51.316;12.370;2022-12-07T03:34:49;11.50;;;6.67;;
3417;SDS011;1722;51.316;12.370;2022-12-07T03:38:12;10.93;;;6.80;;
3417;SDS011;1722;51.316;12.370;2022-12-07T03:41:31;11.03;;;7.30;;
3417;SDS011;1722;51.316;12.370;2022-12-07T03:47:26;14.23;;;8.00;;
3417;SDS011;1722;51.316;12.370;2022-12-07T03:50:18;11.07;;;6.87;;
3417;SDS011;1722;51.316;12.370;2022-12-07T04:00:12;12.10;;;7.03;;
3417;SDS011;1722;51.316;12.370;2022-12-07T04:02:40;12.17;;;7.47;;
3417;SDS011;1722;51.316;12.370;2022-12-07T04:05:47;11.47;;;7.20;;
3417;SDS011;1722;51.316;12.370;2022-12-07T04:08:36;12.17;;;7.07;;
3417;SDS011;1722;51.316;12.370;2022-12-07T04:11:06;12.27;;;7.07;;
3417;SDS011;1722;51.316;12.370;2022-12-07T04:17:10;10.13;;;6.90;;
3417;SDS011;1722;51.316;12.370;2022-12-07T04:19:38;9.60;;;6.67;;
3417;SDS011;1722;51.316;12.370;2022-12-07T04:27:53;13.37;;;6.83;;
3417;SDS011;1722;51.316;12.370;2022-12-07T04:30:23;11.90;;;7.47;;
3417;SDS011;1722;51.316;12.370;2022-12-07T04:33:42;11.80;;;5.77;;
3417;SDS011;1722;51.316;12.370;2022-12-07T04:39:13;11.73;;;6.63;;
3417;SDS011;1722;51.316;12.370;2022-12-07T04:42:38;8.50;;;6.37;;
3417;SDS011;1722;51.316;12.370;2022-12-07T04:45:06;12.83;;;7.10;;
3417;SDS011;1722;51.316;12.370;2022-12-07T04:48:02;14.83;;;6.90;;
3417;SDS011;1722;51.316;12.370;2022-12-07T04:50:50;10.33;;;6.83;;
3417;SDS011;1722;51.316;12.370;2022-12-07T04:53:25;10.27;;;6.83;;
3417;SDS011;1722;51.316;12.370;2022-12-07T04:55:55;10.20;;;6.23;;
3417;SDS011;1722;51.316;12.370;2022-12-07T04:58:22;9.40;;;6.30;;
3417;SDS011;1722;51.316;12.370;2022-12-07T05:00:57;10.93;;;6.57;;
3417;SDS011;1722;51.316;12.370;2022-12-07T05:03:52;10.00;;;6.77;;
3417;SDS011;1722;51.316;12.370;2022-12-07T05:09:55;12.60;;;6.60;;
3417;SDS011;1722;51.316;12.370;2022-12-07T05:15:21;11.50;;;7.20;;
3417;SDS011;1722;51.316;12.370;2022-12-07T05:17:56;13.57;;;7.50;;
3417;SDS011;1722;51.316;12.370;2022-12-07T05:23:18;11.57;;;7.70;;
3417;SDS011;1722;51.316;12.370;2022-12-07T05:25:55;11.67;;;7.70;;
3417;SDS011;1722;51.316;12.370;2022-12-07T05:31:23;14.57;;;7.60;;
3417;SDS011;1722;51.316;12.370;2022-12-07T05:36:57;12.43;;;7.90;;
3417;SDS011;1722;51.316;12.370;2022-12-07T05:39:36;17.83;;;8.70;;
3417;SDS011;1722;51.316;12.370;2022-12-07T05:42:16;12.37;;;8.30;;
3417;SDS011;1722;51.316;12.370;2022-12-07T05:51:42;12.97;;;8.40;;
3417;SDS011;1722;51.316;12.370;2022-12-07T05:57:41;13.53;;;8.47;;
3417;SDS011;1722;51.316;12.370;2022-12-07T06:00:38;14.90;;;9.17;;
3417;SDS011;1722;51.316;12.370;2022-12-07T06:03:35;16.80;;;10.33;;
3417;SDS011;1722;51.316;12.370;2022-12-07T06:06:22;15.57;;;9.40;;
3417;SDS011;1722;51.316;12.370;2022-12-07T06:11:56;14.70;;;9.00;;
3417;SDS011;1722;51.316;12.370;2022-12-07T06:14:54;18.20;;;11.37;;
3417;SDS011;1722;51.316;12.370;2022-12-07T06:17:21;14.53;;;10.10;;
3417;SDS011;1722;51.316;12.370;2022-12-07T06:19:52;16.07;;;10.80;;
3417;SDS011;1722;51.316;12.370;2022-12-07T06:22:34;13.30;;;9.67;;
3417;SDS011;1722;51.316;12.370;2022-12-07T06:25:29;22.20;;;10.30;;
3417;SDS011;1722;51.316;12.370;2022-12-07T06:28:34;24.93;;;11.00;;
3417;SDS011;1722;51.316;12.370;2022-12-07T06:31:19;17.73;;;10.60;;
3417;SDS011;1722;51.316;12.370;2022-12-07T06:37:26;20.53;;;11.40;;
3417;SDS011;1722;51.316;12.370;2022-12-07T06:39:54;19.47;;;10.90;;
3417;SDS011;1722;51.316;12.370;2022-12-07T06:45:21;16.77;;;10.40;;
3417;SDS011;1722;51.316;12.370;2022-12-07T06:47:54;19.03;;;11.70;;
3417;SDS011;1722;51.316;12.370;2022-12-07T06:51:06;18.07;;;10.97;;
3417;SDS011;1722;51.316;12.370;2022-12-07T06:57:16;17.23;;;10.20;;
3417;SDS011;1722;51.316;12.370;2022-12-07T06:59:59;21.03;;;11.27;;
3417;SDS011;1722;51.316;12.370;2022-12-07T07:03:12;17.07;;;11.10;;
3417;SDS011;1722;51.316;12.370;2022-12-07T07:05:48;21.30;;;11.87;;
3417;SDS011;1722;51.316;12.370;2022-12-07T07:08:17;23.53;;;13.37;;
3417;SDS011;1722;51.316;12.370;2022-12-07T07:16:27;18.07;;;11.80;;
3417;SDS011;1722;51.316;12.370;2022-12-07T07:18:55;23.27;;;12.90;;
3417;SDS011;1722;51.316;12.370;2022-12-07T07:21:22;21.10;;;12.03;;
3417;SDS011;1722;51.316;12.370;2022-12-07T07:23:50;20.87;;;12.83;;
3417;SDS011;1722;51.316;12.370;2022-12-07T07:26:17;19.07;;;12.73;;
3417;SDS011;1722;51.316;12.370;2022-12-07T07:28:45;22.77;;;12.70;;
3417;SDS011;1722;51.316;12.370;2022-12-07T07:31:12;21.67;;;13.23;;
3417;SDS011;1722;51.316;12.370;2022-12-07T07:33:41;17.60;;;11.50;;
3417;SDS011;1722;51.316;12.370;2022-12-07T07:36:09;19.40;;;12.30;;
3417;SDS011;1722;51.316;12.370;2022-12-07T07:38:36;19.80;;;12.40;;
3417;SDS011;1722;51.316;12.370;2022-12-07T07:41:04;19.13;;;11.50;;
3417;SDS011;1722;51.316;12.370;2022-12-07T07:43:32;18.90;;;11.80;;
3417;SDS011;1722;51.316;12.370;2022-12-07T07:45:59;19.47;;;11.83;;
3417;SDS011;1722;51.316;12.370;2022-12-07T07:48:27;19.53;;;11.47;;
3417;SDS011;1722;51.316;12.370;2022-12-07T07:50:56;17.87;;;10.40;;
3417;SDS011;1722;51.316;12.370;2022-12-07T07:53:23;20.33;;;11.93;;
3417;SDS011;1722;51.316;12.370;2022-12-07T07:55:51;21.13;;;11.80;;
3417;SDS011;1722;51.316;12.370;2022-12-07T07:58:20;19.60;;;12.00;;
3417;SDS011;1722;51.316;12.370;2022-12-07T08:00:47;17.00;;;10.50;;
3417;SDS011;1722;51.316;12.370;2022-12-07T08:03:15;18.67;;;10.30;;
3417;SDS011;1722;51.316;12.370;2022-12-07T08:05:42;22.30;;;13.53;;
3417;SDS011;1722;51.316;12.370;2022-12-07T08:08:12;16.00;;;10.53;;
3417;SDS011;1722;51.316;12.370;2022-12-07T08:10:39;20.70;;;12.30;;
3417;SDS011;1722;51.316;12.370;2022-12-07T08:13:07;22.47;;;11.60;;
3417;SDS011;1722;51.316;12.370;2022-12-07T08:15:38;16.27;;;10.77;;
3417;SDS011;1722;51.316;12.370;2022-12-07T08:18:07;18.20;;;11.10;;
3417;SDS011;1722;51.316;12.370;2022-12-07T08:20:35;16.47;;;10.50;;
3417;SDS011;1722;51.316;12.370;2022-12-07T08:23:03;19.10;;;10.87;;
3417;SDS011;1722;51.316;12.370;2022-12-07T08:25:33;14.50;;;9.97;;
3417;SDS011;1722;51.316;12.370;2022-12-07T08:28:01;14.93;;;10.20;;
3417;SDS011;1722;51.316;12.370;2022-12-07T08:30:29;15.97;;;10.53;;
3417;SDS011;1722;51.316;12.370;2022-12-07T08:32:57;19.40;;;10.67;;
3417;SDS011;1722;51.316;12.370;2022-12-07T08:35:24;23.17;;;10.13;;
3417;SDS011;1722;51.316;12.370;2022-12-07T08:37:52;16.50;;;10.07;;
3417;SDS011;1722;51.316;12.370;2022-12-07T08:40:20;19.10;;;10.50;;
3417;SDS011;1722;51.316;12.370;2022-12-07T08:42:51;25.17;;;9.20;;
3417;SDS011;1722;51.316;12.370;2022-12-07T08:45:20;18.40;;;11.20;;
3417;SDS011;1722;51.316;12.370;2022-12-07T08:47:49;20.20;;;9.90;;
3417;SDS011;1722;51.316;12.370;2022-12-07T08:50:20;16.60;;;9.53;;
3417;SDS011;1722;51.316;12.370;2022-12-07T08:52:49;17.23;;;10.60;;
3417;SDS011;1722;51.316;12.370;2022-12-07T08:55:20;17.07;;;9.60;;
3417;SDS011;1722;51.316;12.370;2022-12-07T08:57:48;20.03;;;10.97;;
3417;SDS011;1722;51.316;12.370;2022-12-07T09:00:18;18.43;;;9.10;;
3417;SDS011;1722;51.316;12.370;2022-12-07T09:02:45;17.37;;;8.93;;
3417;SDS011;1722;51.316;12.370;2022-12-07T09:05:13;21.53;;;9.60;;
3417;SDS011;1722;51.316;12.370;2022-12-07T09:07:41;18.33;;;9.97;;
3417;SDS011;1722;51.316;12.370;2022-12-07T09:10:10;12.60;;;7.90;;
3417;SDS011;1722;51.316;12.370;2022-12-07T09:12:38;20.93;;;8.83;;
3417;SDS011;1722;51.316;12.370;2022-12-07T09:15:06;15.97;;;9.43;;
3417;SDS011;1722;51.316;12.370;2022-12-07T09:17:36;14.20;;;8.93;;
3417;SDS011;1722;51.316;12.370;2022-12-07T09:20:05;14.13;;;8.13;;
3417;SDS011;1722;51.316;12.370;2022-12-07T09:22:34;16.00;;;9.17;;
3417;SDS011;1722;51.316;12.370;2022-12-07T09:25:03;15.70;;;8.60;;
3417;SDS011;1722;51.316;12.370;2022-12-07T09:27:32;15.63;;;9.73;;
3417;SDS011;1722;51.316;12.370;2022-12-07T09:29:59;13.40;;;8.50;;
3417;SDS011;1722;51.316;12.370;2022-12-07T09:32:27;17.13;;;9.40;;
3417;SDS011;1722;51.316;12.370;2022-12-07T09:34:56;15.03;;;9.13;;
3417;SDS011;1722;51.316;12.370;2022-12-07T09:37:23;17.73;;;9.40;;
3417;SDS011;1722;51.316;12.370;2022-12-07T09:39:51;13.83;;;9.20;;
3417;SDS011;1722;51.316;12.370;2022-12-07T09:42:23;24.33;;;9.17;;
3417;SDS011;1722;51.316;12.370;2022-12-07T09:44:55;17.73;;;8.97;;
3417;SDS011;1722;51.316;12.370;2022-12-07T09:47:23;18.10;;;8.63;;
3417;SDS011;1722;51.316;12.370;2022-12-07T09:49:51;14.50;;;8.97;;
3417;SDS011;1722;51.316;12.370;2022-12-07T09:52:25;13.63;;;8.73;;
3417;SDS011;1722;51.316;12.370;2022-12-07T09:54:54;20.50;;;9.30;;
3417;SDS011;1722;51.316;12.370;2022-12-07T09:57:25;14.93;;;9.47;;
3417;SDS011;1722;51.316;12.370;2022-12-07T09:59:56;16.43;;;8.53;;
3417;SDS011;1722;51.316;12.370;2022-12-07T10:02:33;13.80;;;9.17;;
3417;SDS011;1722;51.316;12.370;2022-12-07T10:05:03;13.30;;;8.67;;
3417;SDS011;1722;51.316;12.370;2022-12-07T10:07:34;14.00;;;8.40;;
3417;SDS011;1722;51.316;12.370;2022-12-07T10:10:03;13.43;;;8.63;;
3417;SDS011;1722;51.316;12.370;2022-12-07T10:12:32;14.70;;;9.10;;
3417;SDS011;1722;51.316;12.370;2022-12-07T10:15:22;15.47;;;9.30;;
3417;SDS011;1722;51.316;12.370;2022-12-07T10:17:51;15.63;;;9.30;;
3417;SDS011;1722;51.316;12.370;2022-12-07T10:20:20;14.43;;;8.30;;
3417;SDS011;1722;51.316;12.370;2022-12-07T10:25:40;15.23;;;8.60;;
3417;SDS011;1722;51.316;12.370;2022-12-07T10:28:13;13.87;;;7.40;;
3417;SDS011;1722;51.316;12.370;2022-12-07T10:30:50;13.83;;;6.87;;
3417;SDS011;1722;51.316;12.370;2022-12-07T10:33:32;10.37;;;7.33;;
3417;SDS011;1722;51.316;12.370;2022-12-07T10:36:09;11.27;;;6.70;;
3417;SDS011;1722;51.316;12.370;2022-12-07T10:38:46;14.10;;;7.57;;
3417;SDS011;1722;51.316;12.370;2022-12-07T10:41:15;14.77;;;7.90;;
3417;SDS011;1722;51.316;12.370;2022-12-07T10:43:46;14.77;;;7.83;;
3417;SDS011;1722;51.316;12.370;2022-12-07T10:46:27;13.67;;;7.47;;
3417;SDS011;1722;51.316;12.370;2022-12-07T10:49:35;14.70;;;8.10;;
3417;SDS011;1722;51.316;12.370;2022-12-07T10:52:18;11.03;;;7.33;;
3417;SDS011;1722;51.316;12.370;2022-12-07T10:57:56;13.37;;;7.10;;
3417;SDS011;1722;51.316;12.370;2022-12-07T11:00:35;12.87;;;6.13;;
3417;SDS011;1722;51.316;12.370;2022-12-07T11:03:18;11.63;;;6.93;;
3417;SDS011;1722;51.316;12.370;2022-12-07T11:06:07;13.33;;;6.07;;
3417;SDS011;1722;51.316;12.370;2022-12-07T11:08:48;16.60;;;6.70;;
3417;SDS011;1722;51.316;12.370;2022-12-07T11:11:29;12.57;;;5.97;;
3417;SDS011;1722;51.316;12.370;2022-12-07T11:14:02;10.77;;;6.80;;
3417;SDS011;1722;51.316;12.370;2022-12-07T11:16:40;13.10;;;7.17;;
3417;SDS011;1722;51.316;12.370;2022-12-07T11:19:26;15.53;;;6.70;;
3417;SDS011;1722;51.316;12.370;2022-12-07T11:22:19;13.83;;;7.13;;
3417;SDS011;1722;51.316;12.370;2022-12-07T11:24:51;8.40;;;5.50;;
3417;SDS011;1722;51.316;12.370;2022-12-07T11:27:28;9.87;;;5.87;;
3417;SDS011;1722;51.316;12.370;2022-12-07T11:30:14;12.40;;;5.93;;
3417;SDS011;1722;51.316;12.370;2022-12-07T11:32:50;15.30;;;6.30;;
3417;SDS011;1722;51.316;12.370;2022-12-07T11:35:31;10.40;;;5.73;;
3417;SDS011;1722;51.316;12.370;2022-12-07T11:38:11;7.23;;;4.83;;
3417;SDS011;1722;51.316;12.370;2022-12-07T11:40:42;8.73;;;5.30;;
3417;SDS011;1722;51.316;12.370;2022-12-07T11:43:15;10.80;;;5.13;;
3417;SDS011;1722;51.316;12.370;2022-12-07T11:45:51;9.00;;;5.00;;
3417;SDS011;1722;51.316;12.370;2022-12-07T11:48:24;9.47;;;5.00;;
3417;SDS011;1722;51.316;12.370;2022-12-07T11:50:59;11.10;;;5.10;;
3417;SDS011;1722;51.316;12.370;2022-12-07T11:53:30;6.20;;;4.60;;
3417;SDS011;1722;51.316;12.370;2022-12-07T11:56:04;10.00;;;5.10;;
3417;SDS011;1722;51.316;12.370;2022-12-07T11:58:39;8.70;;;4.47;;
3417;SDS011;1722;51.316;12.370;2022-12-07T12:01:16;8.53;;;4.23;;
3417;SDS011;1722;51.316;12.370;2022-12-07T12:03:53;8.20;;;4.27;;
3417;SDS011;1722;51.316;12.370;2022-12-07T12:06:28;5.37;;;3.47;;
3417;SDS011;1722;51.316;12.370;2022-12-07T12:08:56;6.60;;;4.20;;
3417;SDS011;1722;51.316;12.370;2022-12-07T12:11:36;6.87;;;3.73;;
3417;SDS011;1722;51.316;12.370;2022-12-07T12:14:21;7.40;;;3.50;;
3417;SDS011;1722;51.316;12.370;2022-12-07T12:17:17;6.80;;;4.13;;
3417;SDS011;1722;51.316;12.370;2022-12-07T12:20:00;9.40;;;3.80;;
3417;SDS011;1722;51.316;12.370;2022-12-07T12:22:34;4.70;;;2.67;;
3417;SDS011;1722;51.316;12.370;2022-12-07T12:25:04;5.43;;;3.50;;
3417;SDS011;1722;51.316;12.370;2022-12-07T12:27:35;6.47;;;2.90;;
3417;SDS011;1722;51.316;12.370;2022-12-07T12:30:23;8.40;;;3.30;;
3417;SDS011;1722;51.316;12.370;2022-12-07T12:33:01;5.03;;;3.17;;
3417;SDS011;1722;51.316;12.370;2022-12-07T12:35:31;6.07;;;3.00;;
3417;SDS011;1722;51.316;12.370;2022-12-07T12:40:51;6.03;;;2.67;;
3417;SDS011;1722;51.316;12.370;2022-12-07T12:55:22;3.33;;;2.10;;
3417;SDS011;1722;51.316;12.370;2022-12-07T13:01:36;3.00;;;2.20;;
3417;SDS011;1722;51.316;12.370;2022-12-07T13:07:11;6.80;;;2.30;;
3417;SDS011;1722;51.316;12.370;2022-12-07T13:09:42;5.90;;;2.00;;
3417;SDS011;1722;51.316;12.370;2022-12-07T13:12:12;10.97;;;2.50;;
3417;SDS011;1722;51.316;12.370;2022-12-07T13:14:52;5.60;;;2.27;;
3417;SDS011;1722;51.316;12.370;2022-12-07T13:20:43;6.20;;;2.60;;
3417;SDS011;1722;51.316;12.370;2022-12-07T13:23:20;4.70;;;2.87;;
3417;SDS011;1722;51.316;12.370;2022-12-07T13:25:59;7.37;;;2.97;;
3417;SDS011;1722;51.316;12.370;2022-12-07T13:28:35;8.20;;;2.47;;
3417;SDS011;1722;51.316;12.370;2022-12-07T13:31:11;4.10;;;2.60;;
3417;SDS011;1722;51.316;12.370;2022-12-07T13:33:43;7.07;;;2.47;;
3417;SDS011;1722;51.316;12.370;2022-12-07T13:36:19;5.80;;;2.30;;
3417;SDS011;1722;51.316;12.370;2022-12-07T13:38:53;3.73;;;1.93;;
3417;SDS011;1722;51.316;12.370;2022-12-07T13:41:23;10.83;;;2.40;;
3417;SDS011;1722;51.316;12.370;2022-12-07T13:43:53;3.50;;;1.97;;
3417;SDS011;1722;51.316;12.370;2022-12-07T13:46:32;4.33;;;2.50;;
3417;SDS011;1722;51.316;12.370;2022-12-07T13:49:16;7.50;;;2.70;;
3417;SDS011;1722;51.316;12.370;2022-12-07T13:51:48;4.80;;;1.90;;
3417;SDS011;1722;51.316;12.370;2022-12-07T13:54:16;5.47;;;1.77;;
3417;SDS011;1722;51.316;12.370;2022-12-07T13:56:47;9.37;;;1.70;;
3417;SDS011;1722;51.316;12.370;2022-12-07T13:59:17;3.30;;;2.00;;
3417;SDS011;1722;51.316;12.370;2022-12-07T14:01:46;7.97;;;2.00;;
3417;SDS011;1722;51.316;12.370;2022-12-07T14:04:19;2.43;;;1.50;;
3417;SDS011;1722;51.316;12.370;2022-12-07T14:06:57;1.87;;;1.60;;
3417;SDS011;1722;51.316;12.370;2022-12-07T14:09:27;4.70;;;2.20;;
3417;SDS011;1722;51.316;12.370;2022-12-07T14:11:56;2.80;;;1.47;;
3417;SDS011;1722;51.316;12.370;2022-12-07T14:14:25;3.23;;;2.47;;
3417;SDS011;1722;51.316;12.370;2022-12-07T14:16:56;4.30;;;2.13;;
3417;SDS011;1722;51.316;12.370;2022-12-07T14:19:40;2.40;;;1.60;;
3417;SDS011;1722;51.316;12.370;2022-12-07T14:22:19;6.70;;;1.80;;
3417;SDS011;1722;51.316;12.370;2022-12-07T14:25:18;3.17;;;1.70;;
3417;SDS011;1722;51.316;12.370;2022-12-07T14:27:48;4.00;;;2.00;;
3417;SDS011;1722;51.316;12.370;2022-12-07T14:30:18;4.37;;;1.83;;
3417;SDS011;1722;51.316;12.370;2022-12-07T14:32:46;4.33;;;2.17;;
3417;SDS011;1722;51.316;12.370;2022-12-07T14:35:17;8.30;;;2.30;;
3417;SDS011;1722;51.316;12.370;2022-12-07T14:37:47;5.40;;;2.13;;
3417;SDS011;1722;51.316;12.370;2022-12-07T14:40:16;2.63;;;1.53;;
3417;SDS011;1722;51.316;12.370;2022-12-07T14:42:45;3.43;;;2.10;;
3417;SDS011;1722;51.316;12.370;2022-12-07T14:45:15;7.23;;;1.90;;
3417;SDS011;1722;51.316;12.370;2022-12-07T14:47:44;2.40;;;1.80;;
3417;SDS011;1722;51.316;12.370;2022-12-07T14:50:13;6.73;;;1.80;;
3417;SDS011;1722;51.316;12.370;2022-12-07T14:52:42;6.97;;;2.37;;
3417;SDS011;1722;51.316;12.370;2022-12-07T14:55:16;3.23;;;2.23;;
3417;SDS011;1722;51.316;12.370;2022-12-07T14:57:49;8.40;;;2.43;;
3417;SDS011;1722;51.316;12.370;2022-12-07T15:00:18;4.17;;;1.77;;
3417;SDS011;1722;51.316;12.370;2022-12-07T15:02:48;9.53;;;2.27;;
3417;SDS011;1722;51.316;12.370;2022-12-07T15:05:16;11.70;;;3.23;;
3417;SDS011;1722;51.316;12.370;2022-12-07T15:07:44;3.57;;;1.60;;
3417;SDS011;1722;51.316;12.370;2022-12-07T15:10:15;9.33;;;2.17;;
3417;SDS011;1722;51.316;12.370;2022-12-07T15:12:44;5.70;;;1.40;;
3417;SDS011;1722;51.316;12.370;2022-12-07T15:15:12;5.27;;;1.67;;
3417;SDS011;1722;51.316;12.370;2022-12-07T15:17:40;1.53;;;1.43;;
3417;SDS011;1722;51.316;12.370;2022-12-07T15:20:09;5.03;;;2.23;;
3417;SDS011;1722;51.316;12.370;2022-12-07T15:22:39;3.37;;;1.80;;
3417;SDS011;1722;51.316;12.370;2022-12-07T15:25:07;7.67;;;1.97;;
3417;SDS011;1722;51.316;12.370;2022-12-07T15:27:40;4.77;;;1.97;;
3417;SDS011;1722;51.316;12.370;2022-12-07T15:30:08;2.80;;;1.53;;
3417;SDS011;1722;51.316;12.370;2022-12-07T15:32:36;4.20;;;1.77;;
3417;SDS011;1722;51.316;12.370;2022-12-07T15:35:03;5.40;;;1.73;;
3417;SDS011;1722;51.316;12.370;2022-12-07T15:37:31;4.50;;;2.13;;
3417;SDS011;1722;51.316;12.370;2022-12-07T15:39:59;2.13;;;1.40;;
3417;SDS011;1722;51.316;12.370;2022-12-07T15:42:27;4.30;;;1.40;;
3417;SDS011;1722;51.316;12.370;2022-12-07T15:44:55;2.73;;;1.60;;
3417;SDS011;1722;51.316;12.370;2022-12-07T15:47:31;5.87;;;1.90;;
3417;SDS011;1722;51.316;12.370;2022-12-07T15:50:00;5.43;;;1.70;;
3417;SDS011;1722;51.316;12.370;2022-12-07T15:52:28;3.10;;;1.70;;
3417;SDS011;1722;51.316;12.370;2022-12-07T15:54:55;3.37;;;2.20;;
3417;SDS011;1722;51.316;12.370;2022-12-07T15:57:23;5.40;;;2.07;;
3417;SDS011;1722;51.316;12.370;2022-12-07T15:59:50;5.03;;;2.53;;
3417;SDS011;1722;51.316;12.370;2022-12-07T16:02:19;5.70;;;2.03;;
3417;SDS011;1722;51.316;12.370;2022-12-07T16:04:48;5.57;;;2.33;;
3417;SDS011;1722;51.316;12.370;2022-12-07T16:07:15;3.03;;;2.10;;
3417;SDS011;1722;51.316;12.370;2022-12-07T16:09:44;6.27;;;2.90;;
3417;SDS011;1722;51.316;12.370;2022-12-07T16:12:13;9.30;;;2.67;;
3417;SDS011;1722;51.316;12.370;2022-12-07T16:14:40;5.23;;;3.40;;
3417;SDS011;1722;51.316;12.370;2022-12-07T16:17:09;6.17;;;3.27;;
3417;SDS011;1722;51.316;12.370;2022-12-07T16:19:38;7.90;;;3.50;;
3417;SDS011;1722;51.316;12.370;2022-12-07T16:22:06;4.77;;;2.10;;
3417;SDS011;1722;51.316;12.370;2022-12-07T16:24:33;8.80;;;2.73;;
3417;SDS011;1722;51.316;12.370;2022-12-07T16:27:01;1.60;;;1.50;;
3417;SDS011;1722;51.316;12.370;2022-12-07T16:29:28;2.97;;;1.90;;
3417;SDS011;1722;51.316;12.370;2022-12-07T16:31:56;5.20;;;1.93;;
3417;SDS011;1722;51.316;12.370;2022-12-07T16:34:23;4.20;;;2.40;;
3417;SDS011;1722;51.316;12.370;2022-12-07T16:36:52;2.30;;;1.60;;
3417;SDS011;1722;51.316;12.370;2022-12-07T16:39:20;2.80;;;1.80;;
3417;SDS011;1722;51.316;12.370;2022-12-07T16:41:47;3.90;;;2.47;;
3417;SDS011;1722;51.316;12.370;2022-12-07T16:44:15;2.83;;;2.23;;
3417;SDS011;1722;51.316;12.370;2022-12-07T16:46:42;7.20;;;2.60;;
3417;SDS011;1722;51.316;12.370;2022-12-07T16:49:11;4.17;;;2.47;;
3417;SDS011;1722;51.316;12.370;2022-12-07T16:51:39;3.90;;;2.37;;
3417;SDS011;1722;51.316;12.370;2022-12-07T16:54:10;3.00;;;2.13;;
3417;SDS011;1722;51.316;12.370;2022-12-07T16:56:38;5.80;;;3.20;;
3417;SDS011;1722;51.316;12.370;2022-12-07T16:59:07;6.70;;;3.10;;
3417;SDS011;1722;51.316;12.370;2022-12-07T17:01:34;7.77;;;3.30;;
3417;SDS011;1722;51.316;12.370;2022-12-07T17:04:02;8.73;;;2.77;;
3417;SDS011;1722;51.316;12.370;2022-12-07T17:06:30;9.50;;;2.90;;
3417;SDS011;1722;51.316;12.370;2022-12-07T17:08:58;7.40;;;3.40;;
3417;SDS011;1722;51.316;12.370;2022-12-07T17:11:28;11.30;;;4.07;;
3417;SDS011;1722;51.316;12.370;2022-12-07T17:13:57;5.30;;;2.90;;
3417;SDS011;1722;51.316;12.370;2022-12-07T17:16:42;9.53;;;4.27;;
3417;SDS011;1722;51.316;12.370;2022-12-07T17:19:10;7.43;;;2.87;;
3417;SDS011;1722;51.316;12.370;2022-12-07T17:21:40;6.73;;;3.63;;
3417;SDS011;1722;51.316;12.370;2022-12-07T17:24:09;9.50;;;3.80;;
3417;SDS011;1722;51.316;12.370;2022-12-07T17:26:40;10.10;;;4.20;;
3417;SDS011;1722;51.316;12.370;2022-12-07T17:29:11;9.70;;;4.90;;
3417;SDS011;1722;51.316;12.370;2022-12-07T17:31:40;9.67;;;3.87;;
3417;SDS011;1722;51.316;12.370;2022-12-07T17:34:09;8.90;;;4.00;;
3417;SDS011;1722;51.316;12.370;2022-12-07T17:36:37;7.00;;;3.90;;
3417;SDS011;1722;51.316;12.370;2022-12-07T17:39:06;9.13;;;3.80;;
3417;SDS011;1722;51.316;12.370;2022-12-07T17:41:35;11.20;;;3.20;;
3417;SDS011;1722;51.316;12.370;2022-12-07T17:44:31;8.00;;;3.67;;
3417;SDS011;1722;51.316;12.370;2022-12-07T17:46:58;6.33;;;2.97;;
3417;SDS011;1722;51.316;12.370;2022-12-07T17:49:27;10.53;;;2.53;;
3417;SDS011;1722;51.316;12.370;2022-12-07T17:51:54;8.17;;;2.70;;
3417;SDS011;1722;51.316;12.370;2022-12-07T17:54:40;11.53;;;3.30;;
3417;SDS011;1722;51.316;12.370;2022-12-07T17:57:07;6.30;;;3.03;;
3417;SDS011;1722;51.316;12.370;2022-12-07T17:59:36;5.53;;;2.67;;
3417;SDS011;1722;51.316;12.370;2022-12-07T18:02:04;9.43;;;3.60;;
3417;SDS011;1722;51.316;12.370;2022-12-07T18:04:31;4.53;;;2.47;;
3417;SDS011;1722;51.316;12.370;2022-12-07T18:06:59;5.67;;;2.83;;
3417;SDS011;1722;51.316;12.370;2022-12-07T18:09:26;13.10;;;4.20;;
3417;SDS011;1722;51.316;12.370;2022-12-07T18:11:54;7.97;;;3.37;;
3417;SDS011;1722;51.316;12.370;2022-12-07T18:14:22;6.03;;;3.37;;